Terminal Aerodrome Forecast
Issued by NWS

Home | Current Version | Previous Version | Text Only | Print | Product List | Glossary On
Versions: 1 2 3 4 5 6 7 8 9 10 11 12 13 14 15 16 17 18 19 20 21 22 23 24 25 26 27 28 29 30 31 32 33 34 35 36 37 38 39 40
000
FTUS43 KGRB 020520
TAFRHI
TAF
KRHI 020520Z 0206/0306 24005KT P6SM SCT060 BKN110
     FM020800 22006KT P6SM SCT050 BKN090
      TEMPO 0208/0212 5SM -TSRA BR BKN050CB
     FM021400 25008G15KT P6SM VCSH BKN035 BKN070
     FM021900 28008G15KT P6SM SCT035 BKN070
     FM030100 30005KT P6SM SCT050=

USA.gov is the U.S. government's official web portal to all federal, state and local government web resources and services.